sensor_id;sensor_type;location;lat;lon;timestamp;P1;durP1;ratioP1;P2;durP2;ratioP2
22774;SDS011;11554;51.106;3.684;2023-04-09T00:00:00;49.90;;;31.90;;
22774;SDS011;11554;51.106;3.684;2023-04-09T00:05:00;49.90;;;31.90;;
22774;SDS011;11554;51.106;3.684;2023-04-09T00:10:00;49.80;;;32.30;;
22774;SDS011;11554;51.106;3.684;2023-04-09T00:15:00;49.80;;;32.30;;
22774;SDS011;11554;51.106;3.684;2023-04-09T00:20:00;43.70;;;29.90;;
22774;SDS011;11554;51.106;3.684;2023-04-09T00:25:00;43.70;;;29.90;;
22774;SDS011;11554;51.106;3.684;2023-04-09T00:30:00;40.40;;;28.00;;
22774;SDS011;11554;51.106;3.684;2023-04-09T00:35:00;40.40;;;28.00;;
22774;SDS011;11554;51.106;3.684;2023-04-09T00:40:00;38.10;;;26.00;;
22774;SDS011;11554;51.106;3.684;2023-04-09T00:45:00;38.10;;;26.00;;
22774;SDS011;11554;51.106;3.684;2023-04-09T00:50:01;37.40;;;26.00;;
22774;SDS011;11554;51.106;3.684;2023-04-09T00:55:03;37.40;;;26.00;;
22774;SDS011;11554;51.106;3.684;2023-04-09T01:00:00;51.20;;;32.80;;
22774;SDS011;11554;51.106;3.684;2023-04-09T01:05:00;51.20;;;32.80;;
22774;SDS011;11554;51.106;3.684;2023-04-09T01:10:16;74.30;;;46.10;;
22774;SDS011;11554;51.106;3.684;2023-04-09T01:15:03;74.30;;;46.10;;
22774;SDS011;11554;51.106;3.684;2023-04-09T01:20:02;74.90;;;45.90;;
22774;SDS011;11554;51.106;3.684;2023-04-09T01:25:08;74.90;;;45.90;;
22774;SDS011;11554;51.106;3.684;2023-04-09T01:30:03;77.00;;;45.40;;
22774;SDS011;11554;51.106;3.684;2023-04-09T01:35:01;77.00;;;45.40;;
22774;SDS011;11554;51.106;3.684;2023-04-09T01:40:00;59.10;;;38.90;;
22774;SDS011;11554;51.106;3.684;2023-04-09T01:45:01;59.10;;;38.90;;
22774;SDS011;11554;51.106;3.684;2023-04-09T01:50:01;51.10;;;34.40;;
22774;SDS011;11554;51.106;3.684;2023-04-09T01:55:00;51.10;;;34.40;;
22774;SDS011;11554;51.106;3.684;2023-04-09T02:00:00;56.70;;;37.50;;
22774;SDS011;11554;51.106;3.684;2023-04-09T02:05:04;56.70;;;37.50;;
22774;SDS011;11554;51.106;3.684;2023-04-09T02:10:01;81.30;;;46.50;;
22774;SDS011;11554;51.106;3.684;2023-04-09T02:15:01;81.30;;;46.50;;
22774;SDS011;11554;51.106;3.684;2023-04-09T02:20:00;65.00;;;40.40;;
22774;SDS011;11554;51.106;3.684;2023-04-09T02:25:00;65.00;;;40.40;;
22774;SDS011;11554;51.106;3.684;2023-04-09T02:30:00;68.40;;;44.70;;
22774;SDS011;11554;51.106;3.684;2023-04-09T02:35:00;68.40;;;44.70;;
22774;SDS011;11554;51.106;3.684;2023-04-09T02:40:00;66.00;;;42.10;;
22774;SDS011;11554;51.106;3.684;2023-04-09T02:45:00;66.00;;;42.10;;
22774;SDS011;11554;51.106;3.684;2023-04-09T02:50:00;71.00;;;45.90;;
22774;SDS011;11554;51.106;3.684;2023-04-09T02:55:00;71.00;;;45.90;;
22774;SDS011;11554;51.106;3.684;2023-04-09T03:00:00;60.20;;;40.10;;
22774;SDS011;11554;51.106;3.684;2023-04-09T03:05:00;60.20;;;40.10;;
22774;SDS011;11554;51.106;3.684;2023-04-09T03:10:00;65.50;;;42.80;;
22774;SDS011;11554;51.106;3.684;2023-04-09T03:15:00;65.50;;;42.80;;
22774;SDS011;11554;51.106;3.684;2023-04-09T03:20:00;69.10;;;42.40;;
22774;SDS011;11554;51.106;3.684;2023-04-09T03:25:00;69.10;;;42.40;;
22774;SDS011;11554;51.106;3.684;2023-04-09T03:30:00;75.90;;;43.80;;
22774;SDS011;11554;51.106;3.684;2023-04-09T03:35:00;75.90;;;43.80;;
22774;SDS011;11554;51.106;3.684;2023-04-09T03:40:00;73.10;;;42.90;;
22774;SDS011;11554;51.106;3.684;2023-04-09T03:45:00;73.10;;;42.90;;
22774;SDS011;11554;51.106;3.684;2023-04-09T03:50:00;60.80;;;36.90;;
22774;SDS011;11554;51.106;3.684;2023-04-09T03:55:02;60.80;;;36.90;;
22774;SDS011;11554;51.106;3.684;2023-04-09T04:00:00;64.00;;;39.50;;
22774;SDS011;11554;51.106;3.684;2023-04-09T04:05:00;64.00;;;39.50;;
22774;SDS011;11554;51.106;3.684;2023-04-09T04:10:02;59.60;;;37.10;;
22774;SDS011;11554;51.106;3.684;2023-04-09T04:15:00;59.60;;;37.10;;
22774;SDS011;11554;51.106;3.684;2023-04-09T04:20:00;60.30;;;37.20;;
22774;SDS011;11554;51.106;3.684;2023-04-09T04:25:00;60.30;;;37.20;;
22774;SDS011;11554;51.106;3.684;2023-04-09T04:30:00;60.00;;;36.40;;
22774;SDS011;11554;51.106;3.684;2023-04-09T04:35:00;60.00;;;36.40;;
22774;SDS011;11554;51.106;3.684;2023-04-09T04:40:00;50.20;;;31.20;;
22774;SDS011;11554;51.106;3.684;2023-04-09T04:45:00;50.20;;;31.20;;
22774;SDS011;11554;51.106;3.684;2023-04-09T04:50:00;51.90;;;33.50;;
22774;SDS011;11554;51.106;3.684;2023-04-09T04:55:00;51.90;;;33.50;;
22774;SDS011;11554;51.106;3.684;2023-04-09T05:00:01;59.10;;;35.00;;
22774;SDS011;11554;51.106;3.684;2023-04-09T05:05:00;59.10;;;35.00;;
22774;SDS011;11554;51.106;3.684;2023-04-09T05:10:00;68.30;;;38.70;;
22774;SDS011;11554;51.106;3.684;2023-04-09T05:15:00;68.30;;;38.70;;
22774;SDS011;11554;51.106;3.684;2023-04-09T05:20:00;76.30;;;42.90;;
22774;SDS011;11554;51.106;3.684;2023-04-09T05:25:00;76.30;;;42.90;;
22774;SDS011;11554;51.106;3.684;2023-04-09T05:30:00;89.40;;;47.00;;
22774;SDS011;11554;51.106;3.684;2023-04-09T05:35:00;89.40;;;47.00;;
22774;SDS011;11554;51.106;3.684;2023-04-09T05:40:00;92.40;;;48.20;;
22774;SDS011;11554;51.106;3.684;2023-04-09T05:45:00;92.40;;;48.20;;
22774;SDS011;11554;51.106;3.684;2023-04-09T05:50:00;104.80;;;50.90;;
22774;SDS011;11554;51.106;3.684;2023-04-09T05:55:00;104.80;;;50.90;;
22774;SDS011;11554;51.106;3.684;2023-04-09T06:00:00;113.50;;;58.40;;
22774;SDS011;11554;51.106;3.684;2023-04-09T06:05:00;113.50;;;58.40;;
22774;SDS011;11554;51.106;3.684;2023-04-09T06:10:00;125.20;;;57.60;;
22774;SDS011;11554;51.106;3.684;2023-04-09T06:15:00;125.20;;;57.60;;
22774;SDS011;11554;51.106;3.684;2023-04-09T06:20:00;127.70;;;59.30;;
22774;SDS011;11554;51.106;3.684;2023-04-09T06:25:00;127.70;;;59.30;;
22774;SDS011;11554;51.106;3.684;2023-04-09T06:40:00;95.40;;;53.50;;
22774;SDS011;11554;51.106;3.684;2023-04-09T06:45:00;95.40;;;53.50;;
22774;SDS011;11554;51.106;3.684;2023-04-09T06:50:00;83.20;;;50.10;;
22774;SDS011;11554;51.106;3.684;2023-04-09T06:55:00;83.20;;;50.10;;
22774;SDS011;11554;51.106;3.684;2023-04-09T07:00:00;72.10;;;48.80;;
22774;SDS011;11554;51.106;3.684;2023-04-09T07:05:00;72.10;;;48.80;;
22774;SDS011;11554;51.106;3.684;2023-04-09T07:10:00;59.90;;;41.60;;
22774;SDS011;11554;51.106;3.684;2023-04-09T07:15:02;59.90;;;41.60;;
22774;SDS011;11554;51.106;3.684;2023-04-09T07:20:00;55.70;;;40.10;;
22774;SDS011;11554;51.106;3.684;2023-04-09T07:25:00;55.70;;;40.10;;
22774;SDS011;11554;51.106;3.684;2023-04-09T07:30:00;53.80;;;39.30;;
22774;SDS011;11554;51.106;3.684;2023-04-09T07:35:02;53.80;;;39.30;;
22774;SDS011;11554;51.106;3.684;2023-04-09T07:40:00;84.60;;;47.40;;
22774;SDS011;11554;51.106;3.684;2023-04-09T07:45:00;84.60;;;47.40;;
22774;SDS011;11554;51.106;3.684;2023-04-09T07:50:00;58.00;;;40.00;;
22774;SDS011;11554;51.106;3.684;2023-04-09T07:55:00;58.00;;;40.00;;
22774;SDS011;11554;51.106;3.684;2023-04-09T08:00:00;54.70;;;39.90;;
22774;SDS011;11554;51.106;3.684;2023-04-09T08:05:00;54.70;;;39.90;;
22774;SDS011;11554;51.106;3.684;2023-04-09T08:10:00;58.40;;;41.20;;
22774;SDS011;11554;51.106;3.684;2023-04-09T08:15:00;58.40;;;41.20;;
22774;SDS011;11554;51.106;3.684;2023-04-09T08:20:00;58.00;;;40.70;;
22774;SDS011;11554;51.106;3.684;2023-04-09T08:25:00;58.00;;;40.70;;
22774;SDS011;11554;51.106;3.684;2023-04-09T08:30:00;56.40;;;40.70;;
22774;SDS011;11554;51.106;3.684;2023-04-09T08:35:00;56.40;;;40.70;;
22774;SDS011;11554;51.106;3.684;2023-04-09T08:40:00;52.90;;;38.80;;
22774;SDS011;11554;51.106;3.684;2023-04-09T08:45:02;52.90;;;38.80;;
22774;SDS011;11554;51.106;3.684;2023-04-09T08:50:00;51.60;;;40.30;;
22774;SDS011;11554;51.106;3.684;2023-04-09T08:55:00;51.60;;;40.30;;
22774;SDS011;11554;51.106;3.684;2023-04-09T09:00:00;53.90;;;38.90;;
22774;SDS011;11554;51.106;3.684;2023-04-09T09:05:00;53.90;;;38.90;;
22774;SDS011;11554;51.106;3.684;2023-04-09T09:10:01;50.50;;;39.20;;
22774;SDS011;11554;51.106;3.684;2023-04-09T09:15:00;50.50;;;39.20;;
22774;SDS011;11554;51.106;3.684;2023-04-09T09:20:18;48.20;;;37.70;;
22774;SDS011;11554;51.106;3.684;2023-04-09T09:25:00;48.20;;;37.70;;
22774;SDS011;11554;51.106;3.684;2023-04-09T09:30:01;46.20;;;35.20;;
22774;SDS011;11554;51.106;3.684;2023-04-09T09:35:02;46.20;;;35.20;;
22774;SDS011;11554;51.106;3.684;2023-04-09T09:40:00;43.60;;;33.30;;
22774;SDS011;11554;51.106;3.684;2023-04-09T09:45:00;43.60;;;33.30;;
22774;SDS011;11554;51.106;3.684;2023-04-09T09:50:01;42.80;;;32.70;;
22774;SDS011;11554;51.106;3.684;2023-04-09T09:55:01;42.80;;;32.70;;
22774;SDS011;11554;51.106;3.684;2023-04-09T10:00:01;40.10;;;31.30;;
22774;SDS011;11554;51.106;3.684;2023-04-09T10:05:00;40.10;;;31.30;;
22774;SDS011;11554;51.106;3.684;2023-04-09T10:10:01;41.50;;;32.20;;
22774;SDS011;11554;51.106;3.684;2023-04-09T10:15:00;41.50;;;32.20;;
22774;SDS011;11554;51.106;3.684;2023-04-09T10:20:06;40.70;;;29.30;;
22774;SDS011;11554;51.106;3.684;2023-04-09T10:25:01;40.70;;;29.30;;
22774;SDS011;11554;51.106;3.684;2023-04-09T10:30:00;35.90;;;29.40;;
22774;SDS011;11554;51.106;3.684;2023-04-09T10:35:01;35.90;;;29.40;;
22774;SDS011;11554;51.106;3.684;2023-04-09T10:40:02;36.50;;;28.20;;
22774;SDS011;11554;51.106;3.684;2023-04-09T10:45:04;36.50;;;28.20;;
22774;SDS011;11554;51.106;3.684;2023-04-09T10:50:14;34.30;;;26.20;;
22774;SDS011;11554;51.106;3.684;2023-04-09T10:55:00;34.30;;;26.20;;
22774;SDS011;11554;51.106;3.684;2023-04-09T11:00:00;33.90;;;27.40;;
22774;SDS011;11554;51.106;3.684;2023-04-09T11:05:05;33.90;;;27.40;;
22774;SDS011;11554;51.106;3.684;2023-04-09T11:10:00;30.80;;;24.20;;
22774;SDS011;11554;51.106;3.684;2023-04-09T11:15:00;30.80;;;24.20;;
22774;SDS011;11554;51.106;3.684;2023-04-09T11:20:01;31.50;;;25.60;;
22774;SDS011;11554;51.106;3.684;2023-04-09T11:25:00;31.50;;;25.60;;
22774;SDS011;11554;51.106;3.684;2023-04-09T11:30:00;24.50;;;20.90;;
22774;SDS011;11554;51.106;3.684;2023-04-09T11:35:00;24.50;;;20.90;;
22774;SDS011;11554;51.106;3.684;2023-04-09T11:40:00;27.80;;;23.40;;
22774;SDS011;11554;51.106;3.684;2023-04-09T11:45:00;27.80;;;23.40;;
22774;SDS011;11554;51.106;3.684;2023-04-09T11:50:00;27.20;;;21.70;;
22774;SDS011;11554;51.106;3.684;2023-04-09T11:55:00;27.20;;;21.70;;
22774;SDS011;11554;51.106;3.684;2023-04-09T12:00:03;28.90;;;23.00;;
22774;SDS011;11554;51.106;3.684;2023-04-09T12:05:02;28.90;;;23.00;;
22774;SDS011;11554;51.106;3.684;2023-04-09T12:10:02;26.10;;;22.40;;
22774;SDS011;11554;51.106;3.684;2023-04-09T12:15:06;26.10;;;22.40;;
22774;SDS011;11554;51.106;3.684;2023-04-09T12:20:00;24.50;;;20.60;;
22774;SDS011;11554;51.106;3.684;2023-04-09T12:25:00;24.50;;;20.60;;
22774;SDS011;11554;51.106;3.684;2023-04-09T12:30:00;26.10;;;21.90;;
22774;SDS011;11554;51.106;3.684;2023-04-09T12:35:00;26.10;;;21.90;;
22774;SDS011;11554;51.106;3.684;2023-04-09T12:40:00;22.70;;;19.70;;
22774;SDS011;11554;51.106;3.684;2023-04-09T12:45:00;22.70;;;19.70;;
22774;SDS011;11554;51.106;3.684;2023-04-09T12:50:00;17.10;;;14.70;;
22774;SDS011;11554;51.106;3.684;2023-04-09T12:55:01;17.10;;;14.70;;
22774;SDS011;11554;51.106;3.684;2023-04-09T13:00:00;14.50;;;11.80;;
22774;SDS011;11554;51.106;3.684;2023-04-09T13:05:00;14.50;;;11.80;;
22774;SDS011;11554;51.106;3.684;2023-04-09T13:10:00;14.80;;;13.30;;
22774;SDS011;11554;51.106;3.684;2023-04-09T13:15:00;14.80;;;13.30;;
22774;SDS011;11554;51.106;3.684;2023-04-09T13:20:00;16.00;;;13.10;;
22774;SDS011;11554;51.106;3.684;2023-04-09T13:25:00;16.00;;;13.10;;
22774;SDS011;11554;51.106;3.684;2023-04-09T13:30:00;16.80;;;13.50;;
22774;SDS011;11554;51.106;3.684;2023-04-09T13:35:00;16.80;;;13.50;;
22774;SDS011;11554;51.106;3.684;2023-04-09T13:40:00;15.10;;;12.50;;
22774;SDS011;11554;51.106;3.684;2023-04-09T13:45:00;15.10;;;12.50;;
22774;SDS011;11554;51.106;3.684;2023-04-09T13:50:00;12.50;;;10.90;;
22774;SDS011;11554;51.106;3.684;2023-04-09T13:55:00;12.50;;;10.90;;
22774;SDS011;11554;51.106;3.684;2023-04-09T14:00:00;12.20;;;9.70;;
22774;SDS011;11554;51.106;3.684;2023-04-09T14:05:00;12.20;;;9.70;;
22774;SDS011;11554;51.106;3.684;2023-04-09T14:10:00;12.70;;;10.10;;
22774;SDS011;11554;51.106;3.684;2023-04-09T14:15:00;12.70;;;10.10;;
22774;SDS011;11554;51.106;3.684;2023-04-09T14:20:00;11.80;;;10.20;;
22774;SDS011;11554;51.106;3.684;2023-04-09T14:25:00;11.80;;;10.20;;
22774;SDS011;11554;51.106;3.684;2023-04-09T14:30:00;12.50;;;10.10;;
22774;SDS011;11554;51.106;3.684;2023-04-09T14:35:00;12.50;;;10.10;;
22774;SDS011;11554;51.106;3.684;2023-04-09T14:40:00;10.50;;;9.40;;
22774;SDS011;11554;51.106;3.684;2023-04-09T14:45:00;10.50;;;9.40;;
22774;SDS011;11554;51.106;3.684;2023-04-09T14:50:00;13.30;;;10.30;;
22774;SDS011;11554;51.106;3.684;2023-04-09T14:55:00;13.30;;;10.30;;
22774;SDS011;11554;51.106;3.684;2023-04-09T15:00:00;11.20;;;9.70;;
22774;SDS011;11554;51.106;3.684;2023-04-09T15:05:00;11.20;;;9.70;;
22774;SDS011;11554;51.106;3.684;2023-04-09T15:10:00;11.20;;;9.20;;
22774;SDS011;11554;51.106;3.684;2023-04-09T15:15:04;11.20;;;9.20;;
22774;SDS011;11554;51.106;3.684;2023-04-09T15:20:00;13.70;;;10.90;;
22774;SDS011;11554;51.106;3.684;2023-04-09T15:25:00;13.70;;;10.90;;
22774;SDS011;11554;51.106;3.684;2023-04-09T15:30:00;12.50;;;9.60;;
22774;SDS011;11554;51.106;3.684;2023-04-09T15:35:00;12.50;;;9.60;;
22774;SDS011;11554;51.106;3.684;2023-04-09T15:40:00;13.50;;;10.70;;
22774;SDS011;11554;51.106;3.684;2023-04-09T15:45:00;13.50;;;10.70;;
22774;SDS011;11554;51.106;3.684;2023-04-09T15:50:00;13.60;;;10.60;;
22774;SDS011;11554;51.106;3.684;2023-04-09T15:55:00;13.60;;;10.60;;
22774;SDS011;11554;51.106;3.684;2023-04-09T16:00:00;12.00;;;9.90;;
22774;SDS011;11554;51.106;3.684;2023-04-09T16:05:00;12.00;;;9.90;;
22774;SDS011;11554;51.106;3.684;2023-04-09T16:10:01;14.00;;;9.80;;
22774;SDS011;11554;51.106;3.684;2023-04-09T16:15:00;14.00;;;9.80;;
22774;SDS011;11554;51.106;3.684;2023-04-09T16:20:00;12.20;;;9.50;;
22774;SDS011;11554;51.106;3.684;2023-04-09T16:25:00;12.20;;;9.50;;
22774;SDS011;11554;51.106;3.684;2023-04-09T16:30:00;11.50;;;8.70;;
22774;SDS011;11554;51.106;3.684;2023-04-09T16:35:01;11.50;;;8.70;;
22774;SDS011;11554;51.106;3.684;2023-04-09T16:40:00;11.30;;;9.30;;
22774;SDS011;11554;51.106;3.684;2023-04-09T16:45:00;11.30;;;9.30;;
22774;SDS011;11554;51.106;3.684;2023-04-09T16:50:00;11.10;;;9.00;;
22774;SDS011;11554;51.106;3.684;2023-04-09T16:55:00;11.10;;;9.00;;
22774;SDS011;11554;51.106;3.684;2023-04-09T17:00:00;11.40;;;8.00;;
22774;SDS011;11554;51.106;3.684;2023-04-09T17:05:00;11.40;;;8.00;;
22774;SDS011;11554;51.106;3.684;2023-04-09T17:10:00;9.70;;;7.30;;
22774;SDS011;11554;51.106;3.684;2023-04-09T17:15:00;9.70;;;7.30;;
22774;SDS011;11554;51.106;3.684;2023-04-09T17:20:00;10.20;;;8.00;;
22774;SDS011;11554;51.106;3.684;2023-04-09T17:25:00;10.20;;;8.00;;
22774;SDS011;11554;51.106;3.684;2023-04-09T17:30:00;10.00;;;8.10;;
22774;SDS011;11554;51.106;3.684;2023-04-09T17:35:00;10.00;;;8.10;;
22774;SDS011;11554;51.106;3.684;2023-04-09T17:40:01;10.70;;;7.90;;
22774;SDS011;11554;51.106;3.684;2023-04-09T17:45:00;10.70;;;7.90;;
22774;SDS011;11554;51.106;3.684;2023-04-09T17:50:00;10.20;;;8.30;;
22774;SDS011;11554;51.106;3.684;2023-04-09T17:55:00;10.20;;;8.30;;
22774;SDS011;11554;51.106;3.684;2023-04-09T18:00:00;10.40;;;8.10;;
22774;SDS011;11554;51.106;3.684;2023-04-09T18:05:00;10.40;;;8.10;;
22774;SDS011;11554;51.106;3.684;2023-04-09T18:10:00;9.00;;;7.30;;
22774;SDS011;11554;51.106;3.684;2023-04-09T18:15:00;9.00;;;7.30;;
22774;SDS011;11554;51.106;3.684;2023-04-09T18:20:00;10.40;;;8.50;;
22774;SDS011;11554;51.106;3.684;2023-04-09T18:25:00;10.40;;;8.50;;
22774;SDS011;11554;51.106;3.684;2023-04-09T18:30:00;10.60;;;7.50;;
22774;SDS011;11554;51.106;3.684;2023-04-09T18:35:00;10.60;;;7.50;;
22774;SDS011;11554;51.106;3.684;2023-04-09T18:40:00;11.80;;;8.30;;
22774;SDS011;11554;51.106;3.684;2023-04-09T18:45:00;11.80;;;8.30;;
22774;SDS011;11554;51.106;3.684;2023-04-09T18:50:00;11.20;;;8.70;;
22774;SDS011;11554;51.106;3.684;2023-04-09T18:55:00;11.20;;;8.70;;
22774;SDS011;11554;51.106;3.684;2023-04-09T19:00:01;18.60;;;10.70;;
22774;SDS011;11554;51.106;3.684;2023-04-09T19:05:00;18.60;;;10.70;;
22774;SDS011;11554;51.106;3.684;2023-04-09T19:10:00;16.10;;;11.20;;
22774;SDS011;11554;51.106;3.684;2023-04-09T19:15:00;16.10;;;11.20;;
22774;SDS011;11554;51.106;3.684;2023-04-09T19:20:00;12.70;;;10.10;;
22774;SDS011;11554;51.106;3.684;2023-04-09T19:25:00;12.70;;;10.10;;
22774;SDS011;11554;51.106;3.684;2023-04-09T19:30:00;16.50;;;12.20;;
22774;SDS011;11554;51.106;3.684;2023-04-09T19:35:00;16.50;;;12.20;;
22774;SDS011;11554;51.106;3.684;2023-04-09T19:40:00;13.60;;;10.90;;
22774;SDS011;11554;51.106;3.684;2023-04-09T19:45:00;13.60;;;10.90;;
22774;SDS011;11554;51.106;3.684;2023-04-09T19:50:00;19.40;;;14.10;;
22774;SDS011;11554;51.106;3.684;2023-04-09T19:55:00;19.40;;;14.10;;
22774;SDS011;11554;51.106;3.684;2023-04-09T20:00:00;19.50;;;14.40;;
22774;SDS011;11554;51.106;3.684;2023-04-09T20:05:00;19.50;;;14.40;;
22774;SDS011;11554;51.106;3.684;2023-04-09T20:10:00;20.10;;;15.40;;
22774;SDS011;11554;51.106;3.684;2023-04-09T20:15:01;20.10;;;15.40;;
22774;SDS011;11554;51.106;3.684;2023-04-09T20:20:00;41.20;;;26.40;;
22774;SDS011;11554;51.106;3.684;2023-04-09T20:25:00;41.20;;;26.40;;
22774;SDS011;11554;51.106;3.684;2023-04-09T20:30:00;24.60;;;17.70;;
22774;SDS011;11554;51.106;3.684;2023-04-09T20:35:00;24.60;;;17.70;;
22774;SDS011;11554;51.106;3.684;2023-04-09T20:40:00;22.20;;;17.30;;
22774;SDS011;11554;51.106;3.684;2023-04-09T20:45:00;22.20;;;17.30;;
22774;SDS011;11554;51.106;3.684;2023-04-09T20:50:00;22.90;;;16.40;;
22774;SDS011;11554;51.106;3.684;2023-04-09T20:55:00;22.90;;;16.40;;
22774;SDS011;11554;51.106;3.684;2023-04-09T21:00:00;25.10;;;18.40;;
22774;SDS011;11554;51.106;3.684;2023-04-09T21:05:00;25.10;;;18.40;;
22774;SDS011;11554;51.106;3.684;2023-04-09T21:10:00;27.30;;;19.80;;
22774;SDS011;11554;51.106;3.684;2023-04-09T21:15:00;27.30;;;19.80;;
22774;SDS011;11554;51.106;3.684;2023-04-09T21:20:00;26.80;;;19.90;;
22774;SDS011;11554;51.106;3.684;2023-04-09T21:25:00;26.80;;;19.90;;
22774;SDS011;11554;51.106;3.684;2023-04-09T21:30:00;29.30;;;22.00;;
22774;SDS011;11554;51.106;3.684;2023-04-09T21:35:00;29.30;;;22.00;;
22774;SDS011;11554;51.106;3.684;2023-04-09T21:40:00;30.80;;;21.70;;
22774;SDS011;11554;51.106;3.684;2023-04-09T21:45:00;30.80;;;21.70;;
22774;SDS011;11554;51.106;3.684;2023-04-09T21:50:02;29.60;;;21.70;;
22774;SDS011;11554;51.106;3.684;2023-04-09T21:55:00;29.60;;;21.70;;
22774;SDS011;11554;51.106;3.684;2023-04-09T22:00:00;30.90;;;22.80;;
22774;SDS011;11554;51.106;3.684;2023-04-09T22:05:00;30.90;;;22.80;;
22774;SDS011;11554;51.106;3.684;2023-04-09T22:10:00;32.10;;;23.60;;
22774;SDS011;11554;51.106;3.684;2023-04-09T22:15:00;32.10;;;23.60;;
22774;SDS011;11554;51.106;3.684;2023-04-09T22:20:00;28.90;;;22.80;;
22774;SDS011;11554;51.106;3.684;2023-04-09T22:25:00;28.90;;;22.80;;
22774;SDS011;11554;51.106;3.684;2023-04-09T22:30:00;31.00;;;23.40;;
22774;SDS011;11554;51.106;3.684;2023-04-09T22:35:00;31.00;;;23.40;;
22774;SDS011;11554;51.106;3.684;2023-04-09T22:40:00;34.90;;;25.60;;
22774;SDS011;11554;51.106;3.684;2023-04-09T22:45:00;34.90;;;25.60;;
22774;SDS011;11554;51.106;3.684;2023-04-09T22:50:00;29.30;;;21.60;;
22774;SDS011;11554;51.106;3.684;2023-04-09T22:55:00;29.30;;;21.60;;
22774;SDS011;11554;51.106;3.684;2023-04-09T23:00:00;27.20;;;19.70;;
22774;SDS011;11554;51.106;3.684;2023-04-09T23:05:00;27.20;;;19.70;;
22774;SDS011;11554;51.106;3.684;2023-04-09T23:10:00;25.20;;;19.10;;
22774;SDS011;11554;51.106;3.684;2023-04-09T23:15:00;25.20;;;19.10;;
22774;SDS011;11554;51.106;3.684;2023-04-09T23:20:00;22.80;;;18.20;;
22774;SDS011;11554;51.106;3.684;2023-04-09T23:25:00;22.80;;;18.20;;
22774;SDS011;11554;51.106;3.684;2023-04-09T23:30:00;23.70;;;17.30;;
22774;SDS011;11554;51.106;3.684;2023-04-09T23:35:00;23.70;;;17.30;;
22774;SDS011;11554;51.106;3.684;2023-04-09T23:40:00;22.20;;;16.90;;
22774;SDS011;11554;51.106;3.684;2023-04-09T23:45:01;22.20;;;16.90;;
22774;SDS011;11554;51.106;3.684;2023-04-09T23:50:01;24.00;;;17.90;;
22774;SDS011;11554;51.106;3.684;2023-04-09T23:55:00;24.00;;;17.90;;
